sensor_id;sensor_type;location;lat;lon;timestamp;P1;durP1;ratioP1;P2;durP2;ratioP2
49131;SDS011;35149;51.196;6.204;2023-09-12T00:01:21;8.68;;;7.38;;
49131;SDS011;35149;51.196;6.204;2023-09-12T00:03:48;9.63;;;6.50;;
49131;SDS011;35149;51.196;6.204;2023-09-12T00:06:20;9.27;;;6.88;;
49131;SDS011;35149;51.196;6.204;2023-09-12T00:08:46;12.38;;;7.70;;
49131;SDS011;35149;51.196;6.204;2023-09-12T00:11:14;8.38;;;6.90;;
49131;SDS011;35149;51.196;6.204;2023-09-12T00:13:44;10.02;;;8.18;;
49131;SDS011;35149;51.196;6.204;2023-09-12T00:16:11;11.10;;;8.23;;
49131;SDS011;35149;51.196;6.204;2023-09-12T00:18:41;12.48;;;7.63;;
49131;SDS011;35149;51.196;6.204;2023-09-12T00:21:09;9.75;;;7.57;;
49131;SDS011;35149;51.196;6.204;2023-09-12T00:23:47;10.45;;;8.10;;
49131;SDS011;35149;51.196;6.204;2023-09-12T00:26:16;8.20;;;7.35;;
49131;SDS011;35149;51.196;6.204;2023-09-12T00:28:49;10.07;;;7.18;;
49131;SDS011;35149;51.196;6.204;2023-09-12T00:31:17;10.00;;;7.07;;
49131;SDS011;35149;51.196;6.204;2023-09-12T00:33:44;9.70;;;7.90;;
49131;SDS011;35149;51.196;6.204;2023-09-12T00:36:11;9.60;;;8.50;;
49131;SDS011;35149;51.196;6.204;2023-09-12T00:38:37;7.85;;;6.90;;
49131;SDS011;35149;51.196;6.204;2023-09-12T00:41:09;8.57;;;7.45;;
49131;SDS011;35149;51.196;6.204;2023-09-12T00:43:36;9.25;;;7.60;;
49131;SDS011;35149;51.196;6.204;2023-09-12T00:46:02;9.50;;;7.25;;
49131;SDS011;35149;51.196;6.204;2023-09-12T00:48:29;17.98;;;7.05;;
49131;SDS011;35149;51.196;6.204;2023-09-12T00:50:58;8.43;;;7.45;;
49131;SDS011;35149;51.196;6.204;2023-09-12T00:53:25;8.80;;;6.65;;
49131;SDS011;35149;51.196;6.204;2023-09-12T00:55:56;7.82;;;7.13;;
49131;SDS011;35149;51.196;6.204;2023-09-12T00:58:24;9.77;;;6.82;;
49131;SDS011;35149;51.196;6.204;2023-09-12T01:00:54;10.45;;;7.88;;
49131;SDS011;35149;51.196;6.204;2023-09-12T01:03:25;9.45;;;7.15;;
49131;SDS011;35149;51.196;6.204;2023-09-12T01:05:54;9.40;;;7.65;;
49131;SDS011;35149;51.196;6.204;2023-09-12T01:08:21;11.00;;;7.40;;
49131;SDS011;35149;51.196;6.204;2023-09-12T01:10:52;9.73;;;8.73;;
49131;SDS011;35149;51.196;6.204;2023-09-12T01:13:24;10.25;;;8.90;;
49131;SDS011;35149;51.196;6.204;2023-09-12T01:15:50;10.82;;;8.63;;
49131;SDS011;35149;51.196;6.204;2023-09-12T01:18:17;10.15;;;9.00;;
49131;SDS011;35149;51.196;6.204;2023-09-12T01:26:41;9.02;;;8.05;;
49131;SDS011;35149;51.196;6.204;2023-09-12T01:29:20;9.05;;;8.13;;
49131;SDS011;35149;51.196;6.204;2023-09-12T01:31:51;13.07;;;9.52;;
49131;SDS011;35149;51.196;6.204;2023-09-12T01:34:24;10.40;;;8.80;;
49131;SDS011;35149;51.196;6.204;2023-09-12T01:36:51;11.38;;;8.82;;
49131;SDS011;35149;51.196;6.204;2023-09-12T01:39:18;10.45;;;8.48;;
49131;SDS011;35149;51.196;6.204;2023-09-12T01:41:45;12.25;;;10.05;;
49131;SDS011;35149;51.196;6.204;2023-09-12T01:44:15;9.63;;;8.65;;
49131;SDS011;35149;51.196;6.204;2023-09-12T01:46:45;11.43;;;9.15;;
49131;SDS011;35149;51.196;6.204;2023-09-12T01:49:15;11.02;;;8.82;;
49131;SDS011;35149;51.196;6.204;2023-09-12T01:51:50;11.18;;;8.52;;
49131;SDS011;35149;51.196;6.204;2023-09-12T01:54:18;10.23;;;9.07;;
49131;SDS011;35149;51.196;6.204;2023-09-12T01:56:50;12.35;;;10.02;;
49131;SDS011;35149;51.196;6.204;2023-09-12T01:59:23;13.45;;;9.90;;
49131;SDS011;35149;51.196;6.204;2023-09-12T02:01:51;13.32;;;10.95;;
49131;SDS011;35149;51.196;6.204;2023-09-12T02:04:24;12.35;;;9.38;;
49131;SDS011;35149;51.196;6.204;2023-09-12T02:06:53;11.95;;;10.52;;
49131;SDS011;35149;51.196;6.204;2023-09-12T02:09:20;13.98;;;10.95;;
49131;SDS011;35149;51.196;6.204;2023-09-12T02:11:49;15.18;;;12.35;;
49131;SDS011;35149;51.196;6.204;2023-09-12T02:14:19;16.27;;;13.63;;
49131;SDS011;35149;51.196;6.204;2023-09-12T02:16:46;21.08;;;14.75;;
49131;SDS011;35149;51.196;6.204;2023-09-12T02:19:15;21.63;;;14.63;;
49131;SDS011;35149;51.196;6.204;2023-09-12T02:21:42;18.45;;;12.50;;
49131;SDS011;35149;51.196;6.204;2023-09-12T02:24:10;17.00;;;14.20;;
49131;SDS011;35149;51.196;6.204;2023-09-12T02:26:37;15.55;;;13.05;;
49131;SDS011;35149;51.196;6.204;2023-09-12T02:29:06;16.38;;;12.95;;
49131;SDS011;35149;51.196;6.204;2023-09-12T02:31:33;15.02;;;11.68;;
49131;SDS011;35149;51.196;6.204;2023-09-12T02:34:00;16.33;;;13.27;;
49131;SDS011;35149;51.196;6.204;2023-09-12T02:36:27;15.55;;;13.80;;
49131;SDS011;35149;51.196;6.204;2023-09-12T02:38:54;14.02;;;11.63;;
49131;SDS011;35149;51.196;6.204;2023-09-12T02:41:21;15.35;;;11.57;;
49131;SDS011;35149;51.196;6.204;2023-09-12T02:43:57;14.95;;;11.48;;
49131;SDS011;35149;51.196;6.204;2023-09-12T02:46:25;17.10;;;12.73;;
49131;SDS011;35149;51.196;6.204;2023-09-12T02:48:52;13.35;;;11.50;;
49131;SDS011;35149;51.196;6.204;2023-09-12T02:51:24;11.98;;;10.45;;
49131;SDS011;35149;51.196;6.204;2023-09-12T02:53:51;13.40;;;10.88;;
49131;SDS011;35149;51.196;6.204;2023-09-12T02:56:18;14.93;;;11.20;;
49131;SDS011;35149;51.196;6.204;2023-09-12T02:58:45;13.88;;;12.38;;
49131;SDS011;35149;51.196;6.204;2023-09-12T03:01:18;13.18;;;11.82;;
49131;SDS011;35149;51.196;6.204;2023-09-12T03:03:51;14.35;;;11.77;;
49131;SDS011;35149;51.196;6.204;2023-09-12T03:06:18;13.80;;;11.30;;
49131;SDS011;35149;51.196;6.204;2023-09-12T03:08:44;12.35;;;10.55;;
49131;SDS011;35149;51.196;6.204;2023-09-12T03:11:11;13.90;;;11.82;;
49131;SDS011;35149;51.196;6.204;2023-09-12T03:13:41;14.60;;;12.05;;
49131;SDS011;35149;51.196;6.204;2023-09-12T03:16:11;17.30;;;13.73;;
49131;SDS011;35149;51.196;6.204;2023-09-12T03:18:38;18.17;;;13.90;;
49131;SDS011;35149;51.196;6.204;2023-09-12T03:21:08;20.05;;;14.40;;
49131;SDS011;35149;51.196;6.204;2023-09-12T03:23:34;19.13;;;15.35;;
49131;SDS011;35149;51.196;6.204;2023-09-12T03:26:02;18.73;;;15.73;;
49131;SDS011;35149;51.196;6.204;2023-09-12T03:28:31;17.65;;;14.98;;
49131;SDS011;35149;51.196;6.204;2023-09-12T03:31:08;19.08;;;15.93;;
49131;SDS011;35149;51.196;6.204;2023-09-12T03:33:41;16.13;;;13.48;;
49131;SDS011;35149;51.196;6.204;2023-09-12T03:36:19;19.10;;;15.43;;
49131;SDS011;35149;51.196;6.204;2023-09-12T03:38:46;18.10;;;14.32;;
49131;SDS011;35149;51.196;6.204;2023-09-12T03:41:14;18.75;;;14.63;;
49131;SDS011;35149;51.196;6.204;2023-09-12T03:43:41;14.88;;;13.38;;
49131;SDS011;35149;51.196;6.204;2023-09-12T03:46:10;21.63;;;14.07;;
49131;SDS011;35149;51.196;6.204;2023-09-12T03:48:39;17.75;;;13.57;;
49131;SDS011;35149;51.196;6.204;2023-09-12T03:51:06;18.05;;;13.45;;
49131;SDS011;35149;51.196;6.204;2023-09-12T03:53:35;16.10;;;14.02;;
49131;SDS011;35149;51.196;6.204;2023-09-12T03:56:02;15.43;;;13.77;;
49131;SDS011;35149;51.196;6.204;2023-09-12T04:01:01;16.85;;;12.80;;
49131;SDS011;35149;51.196;6.204;2023-09-12T04:03:30;18.27;;;14.20;;
49131;SDS011;35149;51.196;6.204;2023-09-12T04:06:00;17.38;;;14.77;;
49131;SDS011;35149;51.196;6.204;2023-09-12T04:08:30;18.20;;;14.30;;
49131;SDS011;35149;51.196;6.204;2023-09-12T04:11:00;18.00;;;14.80;;
49131;SDS011;35149;51.196;6.204;2023-09-12T04:13:31;19.65;;;15.70;;
49131;SDS011;35149;51.196;6.204;2023-09-12T04:15:59;19.42;;;15.25;;
49131;SDS011;35149;51.196;6.204;2023-09-12T04:18:25;17.13;;;15.02;;
49131;SDS011;35149;51.196;6.204;2023-09-12T04:20:53;17.88;;;14.82;;
49131;SDS011;35149;51.196;6.204;2023-09-12T04:23:24;18.55;;;14.20;;
49131;SDS011;35149;51.196;6.204;2023-09-12T04:25:52;17.83;;;15.93;;
49131;SDS011;35149;51.196;6.204;2023-09-12T04:28:19;17.30;;;15.10;;
49131;SDS011;35149;51.196;6.204;2023-09-12T04:30:48;18.23;;;15.23;;
49131;SDS011;35149;51.196;6.204;2023-09-12T04:33:15;17.70;;;14.13;;
49131;SDS011;35149;51.196;6.204;2023-09-12T04:35:45;20.30;;;17.20;;
49131;SDS011;35149;51.196;6.204;2023-09-12T04:38:12;19.02;;;15.27;;
49131;SDS011;35149;51.196;6.204;2023-09-12T04:40:38;18.20;;;14.73;;
49131;SDS011;35149;51.196;6.204;2023-09-12T04:43:09;19.73;;;15.05;;
49131;SDS011;35149;51.196;6.204;2023-09-12T04:45:36;19.85;;;14.93;;
49131;SDS011;35149;51.196;6.204;2023-09-12T04:48:05;19.85;;;15.15;;
49131;SDS011;35149;51.196;6.204;2023-09-12T04:50:32;16.55;;;14.05;;
49131;SDS011;35149;51.196;6.204;2023-09-12T04:53:03;17.23;;;13.80;;
49131;SDS011;35149;51.196;6.204;2023-09-12T04:55:37;18.08;;;14.30;;
49131;SDS011;35149;51.196;6.204;2023-09-12T04:58:12;18.77;;;13.25;;
49131;SDS011;35149;51.196;6.204;2023-09-12T05:00:42;17.65;;;14.35;;
49131;SDS011;35149;51.196;6.204;2023-09-12T05:03:10;17.67;;;13.73;;
49131;SDS011;35149;51.196;6.204;2023-09-12T05:05:45;15.15;;;12.05;;
49131;SDS011;35149;51.196;6.204;2023-09-12T05:08:14;24.55;;;13.32;;
49131;SDS011;35149;51.196;6.204;2023-09-12T05:10:43;17.27;;;13.05;;
49131;SDS011;35149;51.196;6.204;2023-09-12T05:13:22;17.25;;;13.27;;
49131;SDS011;35149;51.196;6.204;2023-09-12T05:15:50;17.58;;;12.48;;
49131;SDS011;35149;51.196;6.204;2023-09-12T05:18:17;15.57;;;12.60;;
49131;SDS011;35149;51.196;6.204;2023-09-12T05:20:47;20.65;;;13.77;;
49131;SDS011;35149;51.196;6.204;2023-09-12T05:23:13;14.40;;;11.82;;
49131;SDS011;35149;51.196;6.204;2023-09-12T05:25:40;13.88;;;11.25;;
49131;SDS011;35149;51.196;6.204;2023-09-12T05:28:07;13.45;;;11.00;;
49131;SDS011;35149;51.196;6.204;2023-09-12T05:30:36;16.38;;;11.82;;
49131;SDS011;35149;51.196;6.204;2023-09-12T05:33:03;14.05;;;11.77;;
49131;SDS011;35149;51.196;6.204;2023-09-12T05:35:33;14.35;;;11.95;;
49131;SDS011;35149;51.196;6.204;2023-09-12T05:37:59;16.38;;;11.98;;
49131;SDS011;35149;51.196;6.204;2023-09-12T05:40:27;13.30;;;11.95;;
49131;SDS011;35149;51.196;6.204;2023-09-12T05:42:54;15.10;;;12.23;;
49131;SDS011;35149;51.196;6.204;2023-09-12T05:45:21;15.20;;;13.18;;
49131;SDS011;35149;51.196;6.204;2023-09-12T05:47:48;16.30;;;12.57;;
49131;SDS011;35149;51.196;6.204;2023-09-12T05:50:16;15.38;;;12.63;;
49131;SDS011;35149;51.196;6.204;2023-09-12T05:52:43;13.07;;;11.70;;
49131;SDS011;35149;51.196;6.204;2023-09-12T05:55:13;16.90;;;13.57;;
49131;SDS011;35149;51.196;6.204;2023-09-12T05:57:42;16.67;;;12.57;;
49131;SDS011;35149;51.196;6.204;2023-09-12T06:00:19;16.30;;;14.43;;
49131;SDS011;35149;51.196;6.204;2023-09-12T06:02:47;14.77;;;12.23;;
49131;SDS011;35149;51.196;6.204;2023-09-12T06:05:15;16.38;;;12.95;;
49131;SDS011;35149;51.196;6.204;2023-09-12T06:07:42;17.10;;;12.60;;
49131;SDS011;35149;51.196;6.204;2023-09-12T06:10:11;17.35;;;12.05;;
49131;SDS011;35149;51.196;6.204;2023-09-12T06:12:38;17.77;;;13.27;;
49131;SDS011;35149;51.196;6.204;2023-09-12T06:15:06;17.40;;;13.57;;
49131;SDS011;35149;51.196;6.204;2023-09-12T06:17:35;15.82;;;13.43;;
49131;SDS011;35149;51.196;6.204;2023-09-12T06:20:02;17.38;;;12.52;;
49131;SDS011;35149;51.196;6.204;2023-09-12T06:22:32;14.65;;;12.77;;
49131;SDS011;35149;51.196;6.204;2023-09-12T06:25:03;14.70;;;13.10;;
49131;SDS011;35149;51.196;6.204;2023-09-12T06:27:32;13.65;;;11.88;;
49131;SDS011;35149;51.196;6.204;2023-09-12T06:30:01;15.93;;;11.43;;
49131;SDS011;35149;51.196;6.204;2023-09-12T06:32:28;13.77;;;11.93;;
49131;SDS011;35149;51.196;6.204;2023-09-12T06:34:58;13.82;;;11.40;;
49131;SDS011;35149;51.196;6.204;2023-09-12T06:37:26;14.93;;;11.98;;
49131;SDS011;35149;51.196;6.204;2023-09-12T06:39:56;16.65;;;12.98;;
49131;SDS011;35149;51.196;6.204;2023-09-12T06:42:22;13.68;;;11.55;;
49131;SDS011;35149;51.196;6.204;2023-09-12T06:44:54;14.97;;;13.33;;
49131;SDS011;35149;51.196;6.204;2023-09-12T06:47:22;16.00;;;13.40;;
49131;SDS011;35149;51.196;6.204;2023-09-12T06:49:53;12.60;;;11.30;;
49131;SDS011;35149;51.196;6.204;2023-09-12T06:52:24;16.00;;;12.85;;
49131;SDS011;35149;51.196;6.204;2023-09-12T06:54:50;18.52;;;12.57;;
49131;SDS011;35149;51.196;6.204;2023-09-12T06:57:17;14.18;;;12.48;;
49131;SDS011;35149;51.196;6.204;2023-09-12T06:59:49;14.80;;;12.45;;
49131;SDS011;35149;51.196;6.204;2023-09-12T07:02:17;14.55;;;12.07;;
49131;SDS011;35149;51.196;6.204;2023-09-12T07:04:45;12.77;;;11.40;;
49131;SDS011;35149;51.196;6.204;2023-09-12T07:07:14;15.52;;;12.52;;
49131;SDS011;35149;51.196;6.204;2023-09-12T07:09:40;15.25;;;12.52;;
49131;SDS011;35149;51.196;6.204;2023-09-12T07:12:15;13.95;;;11.80;;
49131;SDS011;35149;51.196;6.204;2023-09-12T07:14:41;12.57;;;11.25;;
49131;SDS011;35149;51.196;6.204;2023-09-12T07:17:08;14.30;;;11.45;;
49131;SDS011;35149;51.196;6.204;2023-09-12T07:19:40;14.35;;;12.35;;
49131;SDS011;35149;51.196;6.204;2023-09-12T07:22:10;14.77;;;11.65;;
49131;SDS011;35149;51.196;6.204;2023-09-12T07:24:36;13.27;;;11.80;;
49131;SDS011;35149;51.196;6.204;2023-09-12T07:27:03;13.13;;;11.02;;
49131;SDS011;35149;51.196;6.204;2023-09-12T07:29:30;12.40;;;11.20;;
49131;SDS011;35149;51.196;6.204;2023-09-12T07:31:57;13.27;;;11.88;;
49131;SDS011;35149;51.196;6.204;2023-09-12T07:34:29;12.82;;;11.35;;
49131;SDS011;35149;51.196;6.204;2023-09-12T07:36:55;12.15;;;10.30;;
49131;SDS011;35149;51.196;6.204;2023-09-12T07:39:23;14.45;;;10.70;;
49131;SDS011;35149;51.196;6.204;2023-09-12T07:41:50;12.93;;;10.73;;
49131;SDS011;35149;51.196;6.204;2023-09-12T07:44:22;13.27;;;11.80;;
49131;SDS011;35149;51.196;6.204;2023-09-12T07:46:51;12.95;;;10.70;;
49131;SDS011;35149;51.196;6.204;2023-09-12T07:49:19;11.45;;;10.27;;
49131;SDS011;35149;51.196;6.204;2023-09-12T07:51:47;10.73;;;9.70;;
49131;SDS011;35149;51.196;6.204;2023-09-12T07:54:22;10.40;;;8.65;;
49131;SDS011;35149;51.196;6.204;2023-09-12T07:56:52;9.57;;;8.23;;
49131;SDS011;35149;51.196;6.204;2023-09-12T07:59:18;9.88;;;8.45;;
49131;SDS011;35149;51.196;6.204;2023-09-12T08:01:46;9.20;;;7.70;;
49131;SDS011;35149;51.196;6.204;2023-09-12T08:04:13;9.07;;;8.15;;
49131;SDS011;35149;51.196;6.204;2023-09-12T08:06:40;8.93;;;8.02;;
49131;SDS011;35149;51.196;6.204;2023-09-12T08:11:52;11.70;;;10.50;;
49131;SDS011;35149;51.196;6.204;2023-09-12T08:14:19;11.52;;;9.80;;
49131;SDS011;35149;51.196;6.204;2023-09-12T08:16:47;9.70;;;8.35;;
49131;SDS011;35149;51.196;6.204;2023-09-12T08:19:14;10.10;;;7.97;;
49131;SDS011;35149;51.196;6.204;2023-09-12T08:21:49;9.55;;;7.80;;
49131;SDS011;35149;51.196;6.204;2023-09-12T08:24:16;9.68;;;7.95;;
49131;SDS011;35149;51.196;6.204;2023-09-12T08:26:43;8.15;;;7.40;;
49131;SDS011;35149;51.196;6.204;2023-09-12T08:29:09;10.20;;;7.65;;
49131;SDS011;35149;51.196;6.204;2023-09-12T08:31:36;10.63;;;8.30;;
49131;SDS011;35149;51.196;6.204;2023-09-12T08:34:03;10.32;;;6.82;;
49131;SDS011;35149;51.196;6.204;2023-09-12T08:36:42;7.43;;;6.75;;
49131;SDS011;35149;51.196;6.204;2023-09-12T08:39:11;8.93;;;8.02;;
49131;SDS011;35149;51.196;6.204;2023-09-12T08:41:44;8.32;;;7.53;;
49131;SDS011;35149;51.196;6.204;2023-09-12T08:44:22;7.60;;;6.80;;
49131;SDS011;35149;51.196;6.204;2023-09-12T08:46:52;8.00;;;6.95;;
49131;SDS011;35149;51.196;6.204;2023-09-12T08:49:19;7.85;;;7.15;;
49131;SDS011;35149;51.196;6.204;2023-09-12T08:51:45;8.75;;;7.07;;
49131;SDS011;35149;51.196;6.204;2023-09-12T08:54:12;7.75;;;7.05;;
49131;SDS011;35149;51.196;6.204;2023-09-12T08:56:41;7.15;;;6.47;;
49131;SDS011;35149;51.196;6.204;2023-09-12T08:59:11;7.28;;;5.43;;
49131;SDS011;35149;51.196;6.204;2023-09-12T09:01:40;5.93;;;5.10;;
49131;SDS011;35149;51.196;6.204;2023-09-12T09:06:39;5.47;;;4.97;;
49131;SDS011;35149;51.196;6.204;2023-09-12T09:09:17;5.00;;;4.53;;
49131;SDS011;35149;51.196;6.204;2023-09-12T09:11:45;6.88;;;5.68;;
49131;SDS011;35149;51.196;6.204;2023-09-12T09:14:13;5.90;;;5.38;;
49131;SDS011;35149;51.196;6.204;2023-09-12T09:16:43;5.18;;;4.65;;
49131;SDS011;35149;51.196;6.204;2023-09-12T09:19:11;5.57;;;5.07;;
49131;SDS011;35149;51.196;6.204;2023-09-12T09:21:38;6.30;;;5.70;;
49131;SDS011;35149;51.196;6.204;2023-09-12T09:24:08;8.75;;;7.90;;
49131;SDS011;35149;51.196;6.204;2023-09-12T09:26:41;8.23;;;7.47;;
49131;SDS011;35149;51.196;6.204;2023-09-12T09:29:18;8.20;;;7.32;;
49131;SDS011;35149;51.196;6.204;2023-09-12T09:31:50;10.52;;;7.13;;
49131;SDS011;35149;51.196;6.204;2023-09-12T09:34:20;7.70;;;6.90;;
49131;SDS011;35149;51.196;6.204;2023-09-12T09:36:52;7.78;;;7.00;;
49131;SDS011;35149;51.196;6.204;2023-09-12T09:39:23;6.85;;;6.15;;
49131;SDS011;35149;51.196;6.204;2023-09-12T09:41:58;6.70;;;6.05;;
49131;SDS011;35149;51.196;6.204;2023-09-12T09:44:30;7.53;;;6.53;;
49131;SDS011;35149;51.196;6.204;2023-09-12T09:46:59;6.30;;;5.70;;
49131;SDS011;35149;51.196;6.204;2023-09-12T09:49:32;7.20;;;5.95;;
49131;SDS011;35149;51.196;6.204;2023-09-12T09:52:05;8.00;;;6.72;;
49131;SDS011;35149;51.196;6.204;2023-09-12T09:54:38;8.80;;;7.38;;
49131;SDS011;35149;51.196;6.204;2023-09-12T09:57:12;8.80;;;7.25;;
49131;SDS011;35149;51.196;6.204;2023-09-12T09:59:50;7.70;;;6.90;;
49131;SDS011;35149;51.196;6.204;2023-09-12T10:02:21;9.07;;;7.97;;
49131;SDS011;35149;51.196;6.204;2023-09-12T10:04:54;9.93;;;8.77;;
49131;SDS011;35149;51.196;6.204;2023-09-12T10:07:25;8.93;;;8.02;;
49131;SDS011;35149;51.196;6.204;2023-09-12T10:10:00;8.05;;;7.28;;
49131;SDS011;35149;51.196;6.204;2023-09-12T10:12:34;9.80;;;7.30;;
49131;SDS011;35149;51.196;6.204;2023-09-12T10:15:06;6.75;;;6.05;;
49131;SDS011;35149;51.196;6.204;2023-09-12T10:17:36;9.85;;;8.05;;
49131;SDS011;35149;51.196;6.204;2023-09-12T10:20:08;7.70;;;7.05;;
49131;SDS011;35149;51.196;6.204;2023-09-12T10:23:00;8.05;;;7.28;;
49131;SDS011;35149;51.196;6.204;2023-09-12T10:25:39;6.47;;;5.88;;
49131;SDS011;35149;51.196;6.204;2023-09-12T10:28:12;9.10;;;8.20;;
49131;SDS011;35149;51.196;6.204;2023-09-12T10:30:40;11.02;;;10.02;;
49131;SDS011;35149;51.196;6.204;2023-09-12T10:33:11;10.23;;;9.15;;
49131;SDS011;35149;51.196;6.204;2023-09-12T10:35:45;9.40;;;8.50;;
49131;SDS011;35149;51.196;6.204;2023-09-12T10:38:14;10.68;;;9.40;;
49131;SDS011;35149;51.196;6.204;2023-09-12T10:40:51;13.05;;;7.65;;
49131;SDS011;35149;51.196;6.204;2023-09-12T10:43:20;9.13;;;8.10;;
49131;SDS011;35149;51.196;6.204;2023-09-12T10:45:49;11.93;;;8.93;;
49131;SDS011;35149;51.196;6.204;2023-09-12T10:48:18;12.48;;;10.45;;
49131;SDS011;35149;51.196;6.204;2023-09-12T10:50:45;11.57;;;10.38;;
49131;SDS011;35149;51.196;6.204;2023-09-12T10:53:15;10.48;;;9.50;;
49131;SDS011;35149;51.196;6.204;2023-09-12T10:55:42;12.45;;;11.15;;
49131;SDS011;35149;51.196;6.204;2023-09-12T10:58:23;12.32;;;11.02;;
49131;SDS011;35149;51.196;6.204;2023-09-12T11:01:21;11.73;;;9.75;;
49131;SDS011;35149;51.196;6.204;2023-09-12T11:03:51;12.93;;;9.27;;
49131;SDS011;35149;51.196;6.204;2023-09-12T11:06:36;11.98;;;10.48;;
49131;SDS011;35149;51.196;6.204;2023-09-12T11:11:43;11.82;;;10.60;;
49131;SDS011;35149;51.196;6.204;2023-09-12T11:14:15;10.80;;;9.02;;
49131;SDS011;35149;51.196;6.204;2023-09-12T11:16:43;10.75;;;9.65;;
49131;SDS011;35149;51.196;6.204;2023-09-12T11:19:44;11.25;;;9.15;;
49131;SDS011;35149;51.196;6.204;2023-09-12T11:22:30;9.18;;;8.13;;
49131;SDS011;35149;51.196;6.204;2023-09-12T11:25:05;10.02;;;9.05;;
49131;SDS011;35149;51.196;6.204;2023-09-12T11:27:46;10.03;;;8.70;;
49131;SDS011;35149;51.196;6.204;2023-09-12T11:30:33;9.85;;;8.85;;
49131;SDS011;35149;51.196;6.204;2023-09-12T11:33:03;9.82;;;8.93;;
49131;SDS011;35149;51.196;6.204;2023-09-12T11:35:36;10.95;;;8.93;;
49131;SDS011;35149;51.196;6.204;2023-09-12T11:38:09;12.55;;;9.57;;
49131;SDS011;35149;51.196;6.204;2023-09-12T11:43:05;11.77;;;9.15;;
49131;SDS011;35149;51.196;6.204;2023-09-12T11:45:33;9.20;;;8.32;;
49131;SDS011;35149;51.196;6.204;2023-09-12T11:48:00;10.38;;;9.23;;
49131;SDS011;35149;51.196;6.204;2023-09-12T11:50:32;9.00;;;8.18;;
49131;SDS011;35149;51.196;6.204;2023-09-12T11:55:33;9.77;;;8.27;;
49131;SDS011;35149;51.196;6.204;2023-09-12T11:58:02;8.23;;;7.53;;
49131;SDS011;35149;51.196;6.204;2023-09-12T12:00:29;8.40;;;7.60;;
49131;SDS011;35149;51.196;6.204;2023-09-12T12:02:56;7.30;;;6.57;;
49131;SDS011;35149;51.196;6.204;2023-09-12T12:05:28;6.97;;;6.28;;
49131;SDS011;35149;51.196;6.204;2023-09-12T12:07:55;9.05;;;7.82;;
49131;SDS011;35149;51.196;6.204;2023-09-12T12:10:49;7.88;;;6.50;;
49131;SDS011;35149;51.196;6.204;2023-09-12T12:13:24;8.95;;;7.95;;
49131;SDS011;35149;51.196;6.204;2023-09-12T12:15:51;7.90;;;7.13;;
49131;SDS011;35149;51.196;6.204;2023-09-12T12:18:19;8.52;;;7.72;;
49131;SDS011;35149;51.196;6.204;2023-09-12T12:20:46;7.75;;;7.03;;
49131;SDS011;35149;51.196;6.204;2023-09-12T12:23:13;9.13;;;6.68;;
49131;SDS011;35149;51.196;6.204;2023-09-12T12:25:42;7.57;;;6.88;;
49131;SDS011;35149;51.196;6.204;2023-09-12T12:28:09;7.57;;;6.57;;
49131;SDS011;35149;51.196;6.204;2023-09-12T12:30:36;10.10;;;7.13;;
49131;SDS011;35149;51.196;6.204;2023-09-12T12:33:08;6.55;;;5.88;;
49131;SDS011;35149;51.196;6.204;2023-09-12T12:35:59;7.03;;;6.40;;
49131;SDS011;35149;51.196;6.204;2023-09-12T12:38:35;8.23;;;7.43;;
49131;SDS011;35149;51.196;6.204;2023-09-12T12:41:28;8.35;;;7.60;;
49131;SDS011;35149;51.196;6.204;2023-09-12T12:44:16;7.82;;;7.03;;
49131;SDS011;35149;51.196;6.204;2023-09-12T12:46:51;8.48;;;7.60;;
49131;SDS011;35149;51.196;6.204;2023-09-12T12:49:19;6.57;;;5.97;;
49131;SDS011;35149;51.196;6.204;2023-09-12T12:51:47;6.43;;;5.70;;
49131;SDS011;35149;51.196;6.204;2023-09-12T12:54:16;7.18;;;6.55;;
49131;SDS011;35149;51.196;6.204;2023-09-12T12:56:50;6.18;;;5.68;;
49131;SDS011;35149;51.196;6.204;2023-09-12T12:59:19;7.00;;;5.78;;
49131;SDS011;35149;51.196;6.204;2023-09-12T13:01:51;6.28;;;5.63;;
49131;SDS011;35149;51.196;6.204;2023-09-12T13:04:18;5.95;;;5.45;;
49131;SDS011;35149;51.196;6.204;2023-09-12T13:06:49;6.53;;;5.93;;
49131;SDS011;35149;51.196;6.204;2023-09-12T13:09:16;6.32;;;5.78;;
49131;SDS011;35149;51.196;6.204;2023-09-12T13:11:45;8.18;;;5.40;;
49131;SDS011;35149;51.196;6.204;2023-09-12T13:14:12;6.80;;;6.20;;
49131;SDS011;35149;51.196;6.204;2023-09-12T13:16:38;7.22;;;6.55;;
49131;SDS011;35149;51.196;6.204;2023-09-12T13:19:07;6.35;;;5.80;;
49131;SDS011;35149;51.196;6.204;2023-09-12T13:21:36;8.30;;;6.35;;
49131;SDS011;35149;51.196;6.204;2023-09-12T13:24:06;5.95;;;5.43;;
49131;SDS011;35149;51.196;6.204;2023-09-12T13:26:33;5.32;;;4.82;;
49131;SDS011;35149;51.196;6.204;2023-09-12T13:28:59;5.38;;;4.88;;
49131;SDS011;35149;51.196;6.204;2023-09-12T13:31:26;6.25;;;5.65;;
49131;SDS011;35149;51.196;6.204;2023-09-12T13:33:53;6.38;;;5.78;;
49131;SDS011;35149;51.196;6.204;2023-09-12T13:36:19;6.60;;;5.50;;
49131;SDS011;35149;51.196;6.204;2023-09-12T13:38:48;6.13;;;5.55;;
49131;SDS011;35149;51.196;6.204;2023-09-12T13:41:17;5.20;;;4.80;;
49131;SDS011;35149;51.196;6.204;2023-09-12T13:43:44;5.70;;;5.20;;
49131;SDS011;35149;51.196;6.204;2023-09-12T13:46:15;5.40;;;4.90;;
49131;SDS011;35149;51.196;6.204;2023-09-12T13:48:42;6.45;;;4.70;;
49131;SDS011;35149;51.196;6.204;2023-09-12T13:51:14;4.70;;;4.30;;
49131;SDS011;35149;51.196;6.204;2023-09-12T13:53:40;5.10;;;4.70;;
49131;SDS011;35149;51.196;6.204;2023-09-12T13:56:11;6.32;;;5.72;;
49131;SDS011;35149;51.196;6.204;2023-09-12T13:58:39;5.57;;;5.18;;
49131;SDS011;35149;51.196;6.204;2023-09-12T14:01:12;5.72;;;5.00;;
49131;SDS011;35149;51.196;6.204;2023-09-12T14:03:53;5.07;;;4.68;;
49131;SDS011;35149;51.196;6.204;2023-09-12T14:06:23;5.10;;;4.68;;
49131;SDS011;35149;51.196;6.204;2023-09-12T14:11:22;4.97;;;4.57;;
49131;SDS011;35149;51.196;6.204;2023-09-12T14:14:01;5.30;;;4.40;;
49131;SDS011;35149;51.196;6.204;2023-09-12T14:16:33;4.70;;;4.38;;
49131;SDS011;35149;51.196;6.204;2023-09-12T14:19:02;4.68;;;4.28;;
49131;SDS011;35149;51.196;6.204;2023-09-12T14:21:34;5.00;;;4.57;;
49131;SDS011;35149;51.196;6.204;2023-09-12T14:24:06;4.18;;;3.88;;
49131;SDS011;35149;51.196;6.204;2023-09-12T14:26:36;5.57;;;4.80;;
49131;SDS011;35149;51.196;6.204;2023-09-12T14:29:05;5.00;;;4.50;;
49131;SDS011;35149;51.196;6.204;2023-09-12T14:31:31;5.18;;;4.18;;
49131;SDS011;35149;51.196;6.204;2023-09-12T14:33:58;5.80;;;4.15;;
49131;SDS011;35149;51.196;6.204;2023-09-12T14:36:25;5.18;;;4.65;;
49131;SDS011;35149;51.196;6.204;2023-09-12T14:38:57;5.05;;;4.35;;
49131;SDS011;35149;51.196;6.204;2023-09-12T14:41:24;4.70;;;4.30;;
49131;SDS011;35149;51.196;6.204;2023-09-12T14:43:51;4.50;;;4.10;;
49131;SDS011;35149;51.196;6.204;2023-09-12T14:46:19;4.55;;;4.15;;
49131;SDS011;35149;51.196;6.204;2023-09-12T14:48:51;7.05;;;4.47;;
49131;SDS011;35149;51.196;6.204;2023-09-12T14:51:26;4.65;;;4.32;;
49131;SDS011;35149;51.196;6.204;2023-09-12T14:54:00;4.97;;;4.45;;
49131;SDS011;35149;51.196;6.204;2023-09-12T14:56:28;4.88;;;4.38;;
49131;SDS011;35149;51.196;6.204;2023-09-12T14:58:54;5.55;;;4.85;;
49131;SDS011;35149;51.196;6.204;2023-09-12T15:01:22;5.57;;;4.65;;
49131;SDS011;35149;51.196;6.204;2023-09-12T15:06:20;4.82;;;4.43;;
49131;SDS011;35149;51.196;6.204;2023-09-12T15:08:50;5.25;;;4.75;;
49131;SDS011;35149;51.196;6.204;2023-09-12T15:11:17;5.22;;;4.82;;
49131;SDS011;35149;51.196;6.204;2023-09-12T15:13:47;5.57;;;5.15;;
49131;SDS011;35149;51.196;6.204;2023-09-12T15:16:16;6.38;;;5.13;;
49131;SDS011;35149;51.196;6.204;2023-09-12T15:18:51;5.18;;;4.78;;